Marble Falls, Arkansas
Current Conditions -  °F | °C
As of 7:53 AM on Monday 24 Nov 2014 (Local Time) from KHRO Reporting Station
Clear Clear  
Wind Chill: 32°   Ceiling: Unl
Heat Index: 39°   Visibility: 10mi
Dew Point: 32°   Wind: 12mph
Humidity: 76%   Direction: 270°W
Pressure: 29.77"   Gusts: 20mph
Location:  36.09°N, 93.15°W
Report Text: KHRO 241353Z AUTO 27010G17KT 10SM CLR 04/00 A2977 RMK AO2 SLP082 T00390000
Loading
Personal Weather Stations






























Interactive Weather Map New forecast layout! Learn more

10-Day Weather Forecast

Advertisements
Track Severe Weather on mobile